sensor_id;sensor_type;location;lat;lon;timestamp;P1;durP1;ratioP1;P2;durP2;ratioP2
7583;SDS011;3833;41.764;26.204;2023-07-20T00:01:31;6.63;;;6.00;;
7583;SDS011;3833;41.764;26.204;2023-07-20T00:03:58;6.10;;;5.50;;
7583;SDS011;3833;41.764;26.204;2023-07-20T00:06:25;8.33;;;6.10;;
7583;SDS011;3833;41.764;26.204;2023-07-20T00:08:52;6.13;;;5.63;;
7583;SDS011;3833;41.764;26.204;2023-07-20T00:11:21;8.57;;;6.13;;
7583;SDS011;3833;41.764;26.204;2023-07-20T00:13:48;8.17;;;5.67;;
7583;SDS011;3833;41.764;26.204;2023-07-20T00:16:14;8.07;;;5.57;;
7583;SDS011;3833;41.764;26.204;2023-07-20T00:18:41;6.97;;;6.27;;
7583;SDS011;3833;41.764;26.204;2023-07-20T00:21:08;6.97;;;5.87;;
7583;SDS011;3833;41.764;26.204;2023-07-20T00:23:35;7.73;;;6.43;;
7583;SDS011;3833;41.764;26.204;2023-07-20T00:26:02;10.60;;;5.83;;
7583;SDS011;3833;41.764;26.204;2023-07-20T00:28:30;6.60;;;6.00;;
7583;SDS011;3833;41.764;26.204;2023-07-20T00:30:58;6.23;;;5.43;;
7583;SDS011;3833;41.764;26.204;2023-07-20T00:33:25;7.30;;;5.93;;
7583;SDS011;3833;41.764;26.204;2023-07-20T00:35:52;7.43;;;6.33;;
7583;SDS011;3833;41.764;26.204;2023-07-20T00:38:19;7.57;;;5.93;;
7583;SDS011;3833;41.764;26.204;2023-07-20T00:40:46;6.63;;;6.00;;
7583;SDS011;3833;41.764;26.204;2023-07-20T00:43:14;6.27;;;5.77;;
7583;SDS011;3833;41.764;26.204;2023-07-20T00:45:42;6.17;;;5.67;;
7583;SDS011;3833;41.764;26.204;2023-07-20T00:48:10;8.80;;;5.90;;
7583;SDS011;3833;41.764;26.204;2023-07-20T00:50:37;6.73;;;6.03;;
7583;SDS011;3833;41.764;26.204;2023-07-20T00:53:05;6.20;;;5.70;;
7583;SDS011;3833;41.764;26.204;2023-07-20T00:55:32;6.10;;;5.50;;
7583;SDS011;3833;41.764;26.204;2023-07-20T00:57:59;7.20;;;6.00;;
7583;SDS011;3833;41.764;26.204;2023-07-20T01:00:26;7.70;;;5.50;;
7583;SDS011;3833;41.764;26.204;2023-07-20T01:02:54;7.43;;;5.70;;
7583;SDS011;3833;41.764;26.204;2023-07-20T01:05:21;6.70;;;6.00;;
7583;SDS011;3833;41.764;26.204;2023-07-20T01:07:55;6.40;;;5.70;;
7583;SDS011;3833;41.764;26.204;2023-07-20T01:10:27;6.93;;;6.30;;
7583;SDS011;3833;41.764;26.204;2023-07-20T01:12:56;8.00;;;6.10;;
7583;SDS011;3833;41.764;26.204;2023-07-20T01:15:23;6.97;;;6.23;;
7583;SDS011;3833;41.764;26.204;2023-07-20T01:17:50;7.13;;;5.70;;
7583;SDS011;3833;41.764;26.204;2023-07-20T01:20:19;6.73;;;6.13;;
7583;SDS011;3833;41.764;26.204;2023-07-20T01:23:00;6.83;;;5.47;;
7583;SDS011;3833;41.764;26.204;2023-07-20T01:25:42;9.30;;;6.00;;
7583;SDS011;3833;41.764;26.204;2023-07-20T01:28:22;6.77;;;5.70;;
7583;SDS011;3833;41.764;26.204;2023-07-20T01:31:12;7.17;;;5.43;;
7583;SDS011;3833;41.764;26.204;2023-07-20T01:33:44;10.10;;;6.07;;
7583;SDS011;3833;41.764;26.204;2023-07-20T01:36:12;7.73;;;5.83;;
7583;SDS011;3833;41.764;26.204;2023-07-20T01:38:41;7.13;;;6.43;;
7583;SDS011;3833;41.764;26.204;2023-07-20T01:41:08;6.70;;;6.00;;
7583;SDS011;3833;41.764;26.204;2023-07-20T01:43:35;10.73;;;6.30;;
7583;SDS011;3833;41.764;26.204;2023-07-20T01:46:02;7.30;;;6.60;;
7583;SDS011;3833;41.764;26.204;2023-07-20T01:48:31;7.27;;;5.93;;
7583;SDS011;3833;41.764;26.204;2023-07-20T01:50:57;10.23;;;6.23;;
7583;SDS011;3833;41.764;26.204;2023-07-20T01:53:24;7.13;;;6.43;;
7583;SDS011;3833;41.764;26.204;2023-07-20T01:55:52;10.47;;;6.10;;
7583;SDS011;3833;41.764;26.204;2023-07-20T01:58:19;12.17;;;5.80;;
7583;SDS011;3833;41.764;26.204;2023-07-20T02:00:46;10.17;;;6.77;;
7583;SDS011;3833;41.764;26.204;2023-07-20T02:03:12;8.77;;;6.43;;
7583;SDS011;3833;41.764;26.204;2023-07-20T02:05:41;8.63;;;6.37;;
7583;SDS011;3833;41.764;26.204;2023-07-20T02:08:08;8.67;;;6.60;;
7583;SDS011;3833;41.764;26.204;2023-07-20T02:10:35;10.03;;;6.67;;
7583;SDS011;3833;41.764;26.204;2023-07-20T02:13:02;9.27;;;6.43;;
7583;SDS011;3833;41.764;26.204;2023-07-20T02:15:29;6.47;;;5.87;;
7583;SDS011;3833;41.764;26.204;2023-07-20T02:17:56;7.37;;;6.67;;
7583;SDS011;3833;41.764;26.204;2023-07-20T02:20:23;6.80;;;6.20;;
7583;SDS011;3833;41.764;26.204;2023-07-20T02:22:51;8.73;;;6.53;;
7583;SDS011;3833;41.764;26.204;2023-07-20T02:25:18;7.10;;;5.93;;
7583;SDS011;3833;41.764;26.204;2023-07-20T02:27:45;7.67;;;6.27;;
7583;SDS011;3833;41.764;26.204;2023-07-20T02:30:12;7.87;;;6.40;;
7583;SDS011;3833;41.764;26.204;2023-07-20T02:32:39;7.00;;;6.30;;
7583;SDS011;3833;41.764;26.204;2023-07-20T02:35:06;9.67;;;6.23;;
7583;SDS011;3833;41.764;26.204;2023-07-20T02:37:33;7.23;;;6.53;;
7583;SDS011;3833;41.764;26.204;2023-07-20T02:40:01;6.93;;;6.20;;
7583;SDS011;3833;41.764;26.204;2023-07-20T02:42:29;6.73;;;5.80;;
7583;SDS011;3833;41.764;26.204;2023-07-20T02:44:56;8.53;;;6.37;;
7583;SDS011;3833;41.764;26.204;2023-07-20T02:47:23;8.53;;;6.13;;
7583;SDS011;3833;41.764;26.204;2023-07-20T02:49:50;8.53;;;6.13;;
7583;SDS011;3833;41.764;26.204;2023-07-20T02:52:17;8.63;;;6.30;;
7583;SDS011;3833;41.764;26.204;2023-07-20T02:54:44;7.67;;;6.37;;
7583;SDS011;3833;41.764;26.204;2023-07-20T02:57:12;8.87;;;6.10;;
7583;SDS011;3833;41.764;26.204;2023-07-20T02:59:39;9.27;;;6.37;;
7583;SDS011;3833;41.764;26.204;2023-07-20T03:02:06;6.37;;;5.83;;
7583;SDS011;3833;41.764;26.204;2023-07-20T03:04:34;9.73;;;6.60;;
7583;SDS011;3833;41.764;26.204;2023-07-20T03:07:02;11.27;;;6.03;;
7583;SDS011;3833;41.764;26.204;2023-07-20T03:09:29;6.13;;;5.47;;
7583;SDS011;3833;41.764;26.204;2023-07-20T03:11:56;7.47;;;6.10;;
7583;SDS011;3833;41.764;26.204;2023-07-20T03:14:24;6.77;;;6.13;;
7583;SDS011;3833;41.764;26.204;2023-07-20T03:16:51;7.03;;;6.10;;
7583;SDS011;3833;41.764;26.204;2023-07-20T03:19:18;6.53;;;5.67;;
7583;SDS011;3833;41.764;26.204;2023-07-20T03:21:45;6.90;;;6.30;;
7583;SDS011;3833;41.764;26.204;2023-07-20T03:24:11;6.97;;;6.33;;
7583;SDS011;3833;41.764;26.204;2023-07-20T03:26:38;6.13;;;5.63;;
7583;SDS011;3833;41.764;26.204;2023-07-20T03:29:05;6.97;;;6.23;;
7583;SDS011;3833;41.764;26.204;2023-07-20T03:31:34;6.60;;;6.00;;
7583;SDS011;3833;41.764;26.204;2023-07-20T03:34:01;6.07;;;5.53;;
7583;SDS011;3833;41.764;26.204;2023-07-20T03:36:28;7.37;;;6.47;;
7583;SDS011;3833;41.764;26.204;2023-07-20T03:38:56;6.37;;;5.77;;
7583;SDS011;3833;41.764;26.204;2023-07-20T03:41:23;8.23;;;5.70;;
7583;SDS011;3833;41.764;26.204;2023-07-20T03:43:50;7.33;;;5.80;;
7583;SDS011;3833;41.764;26.204;2023-07-20T03:46:17;5.80;;;5.30;;
7583;SDS011;3833;41.764;26.204;2023-07-20T03:48:45;6.70;;;6.07;;
7583;SDS011;3833;41.764;26.204;2023-07-20T03:51:12;8.00;;;5.63;;
7583;SDS011;3833;41.764;26.204;2023-07-20T03:53:39;7.17;;;5.60;;
7583;SDS011;3833;41.764;26.204;2023-07-20T03:56:07;9.03;;;6.20;;
7583;SDS011;3833;41.764;26.204;2023-07-20T03:58:34;6.27;;;5.67;;
7583;SDS011;3833;41.764;26.204;2023-07-20T04:01:02;6.10;;;5.57;;
7583;SDS011;3833;41.764;26.204;2023-07-20T04:03:28;6.23;;;5.37;;
7583;SDS011;3833;41.764;26.204;2023-07-20T04:05:57;6.13;;;5.53;;
7583;SDS011;3833;41.764;26.204;2023-07-20T04:08:24;7.93;;;5.83;;
7583;SDS011;3833;41.764;26.204;2023-07-20T04:10:51;6.13;;;5.53;;
7583;SDS011;3833;41.764;26.204;2023-07-20T04:13:17;6.10;;;5.50;;
7583;SDS011;3833;41.764;26.204;2023-07-20T04:15:44;8.90;;;6.07;;
7583;SDS011;3833;41.764;26.204;2023-07-20T04:18:11;7.20;;;5.43;;
7583;SDS011;3833;41.764;26.204;2023-07-20T04:20:38;6.43;;;5.30;;
7583;SDS011;3833;41.764;26.204;2023-07-20T04:23:06;6.50;;;5.60;;
7583;SDS011;3833;41.764;26.204;2023-07-20T04:25:34;8.67;;;5.70;;
7583;SDS011;3833;41.764;26.204;2023-07-20T04:28:04;7.30;;;5.70;;
7583;SDS011;3833;41.764;26.204;2023-07-20T04:30:33;5.60;;;5.10;;
7583;SDS011;3833;41.764;26.204;2023-07-20T04:33:01;8.37;;;5.97;;
7583;SDS011;3833;41.764;26.204;2023-07-20T04:35:49;5.97;;;5.37;;
7583;SDS011;3833;41.764;26.204;2023-07-20T04:38:18;6.97;;;5.73;;
7583;SDS011;3833;41.764;26.204;2023-07-20T04:40:46;7.70;;;6.03;;
7583;SDS011;3833;41.764;26.204;2023-07-20T04:43:13;6.13;;;5.53;;
7583;SDS011;3833;41.764;26.204;2023-07-20T04:45:39;6.53;;;5.30;;
7583;SDS011;3833;41.764;26.204;2023-07-20T04:48:08;6.03;;;5.43;;
7583;SDS011;3833;41.764;26.204;2023-07-20T04:50:36;6.13;;;5.37;;
7583;SDS011;3833;41.764;26.204;2023-07-20T04:53:03;7.87;;;5.60;;
7583;SDS011;3833;41.764;26.204;2023-07-20T04:55:32;7.93;;;5.97;;
7583;SDS011;3833;41.764;26.204;2023-07-20T04:58:00;9.43;;;5.37;;
7583;SDS011;3833;41.764;26.204;2023-07-20T05:00:27;5.77;;;5.30;;
7583;SDS011;3833;41.764;26.204;2023-07-20T05:02:54;6.10;;;5.20;;
7583;SDS011;3833;41.764;26.204;2023-07-20T05:05:21;6.27;;;5.47;;
7583;SDS011;3833;41.764;26.204;2023-07-20T05:07:48;8.23;;;5.17;;
7583;SDS011;3833;41.764;26.204;2023-07-20T05:10:15;7.83;;;5.70;;
7583;SDS011;3833;41.764;26.204;2023-07-20T05:12:44;11.10;;;6.10;;
7583;SDS011;3833;41.764;26.204;2023-07-20T05:15:11;10.20;;;6.10;;
7583;SDS011;3833;41.764;26.204;2023-07-20T05:17:38;8.00;;;5.77;;
7583;SDS011;3833;41.764;26.204;2023-07-20T05:20:06;7.13;;;5.90;;
7583;SDS011;3833;41.764;26.204;2023-07-20T05:22:35;7.13;;;5.10;;
7583;SDS011;3833;41.764;26.204;2023-07-20T05:25:05;8.53;;;5.90;;
7583;SDS011;3833;41.764;26.204;2023-07-20T05:27:33;11.07;;;5.70;;
7583;SDS011;3833;41.764;26.204;2023-07-20T05:30:02;6.20;;;5.60;;
7583;SDS011;3833;41.764;26.204;2023-07-20T05:32:29;6.50;;;5.63;;
7583;SDS011;3833;41.764;26.204;2023-07-20T05:34:57;6.40;;;5.83;;
7583;SDS011;3833;41.764;26.204;2023-07-20T05:37:23;10.97;;;5.63;;
7583;SDS011;3833;41.764;26.204;2023-07-20T05:39:50;6.73;;;5.60;;
7583;SDS011;3833;41.764;26.204;2023-07-20T05:42:17;11.80;;;6.10;;
7583;SDS011;3833;41.764;26.204;2023-07-20T05:44:44;7.40;;;5.80;;
7583;SDS011;3833;41.764;26.204;2023-07-20T05:47:13;9.30;;;5.43;;
7583;SDS011;3833;41.764;26.204;2023-07-20T05:49:40;5.63;;;5.17;;
7583;SDS011;3833;41.764;26.204;2023-07-20T05:52:07;7.43;;;5.90;;
7583;SDS011;3833;41.764;26.204;2023-07-20T05:54:34;6.33;;;5.50;;
7583;SDS011;3833;41.764;26.204;2023-07-20T05:57:01;6.40;;;5.90;;
7583;SDS011;3833;41.764;26.204;2023-07-20T05:59:28;14.23;;;5.77;;
7583;SDS011;3833;41.764;26.204;2023-07-20T06:01:55;6.83;;;5.70;;
7583;SDS011;3833;41.764;26.204;2023-07-20T06:04:24;9.77;;;5.37;;
7583;SDS011;3833;41.764;26.204;2023-07-20T06:06:50;7.37;;;6.17;;
7583;SDS011;3833;41.764;26.204;2023-07-20T06:09:17;7.13;;;5.90;;
7583;SDS011;3833;41.764;26.204;2023-07-20T06:11:44;6.27;;;5.67;;
7583;SDS011;3833;41.764;26.204;2023-07-20T06:14:11;5.87;;;5.27;;
7583;SDS011;3833;41.764;26.204;2023-07-20T06:16:38;8.70;;;6.07;;
7583;SDS011;3833;41.764;26.204;2023-07-20T06:19:05;9.33;;;5.93;;
7583;SDS011;3833;41.764;26.204;2023-07-20T06:21:33;6.37;;;5.73;;
7583;SDS011;3833;41.764;26.204;2023-07-20T06:24:00;8.63;;;5.60;;
7583;SDS011;3833;41.764;26.204;2023-07-20T06:26:27;8.77;;;6.50;;
7583;SDS011;3833;41.764;26.204;2023-07-20T06:28:55;5.43;;;4.93;;
7583;SDS011;3833;41.764;26.204;2023-07-20T06:31:22;7.57;;;5.90;;
7583;SDS011;3833;41.764;26.204;2023-07-20T06:33:49;6.53;;;5.03;;
7583;SDS011;3833;41.764;26.204;2023-07-20T06:36:16;7.43;;;5.37;;
7583;SDS011;3833;41.764;26.204;2023-07-20T06:38:45;5.87;;;5.23;;
7583;SDS011;3833;41.764;26.204;2023-07-20T06:41:12;6.90;;;5.37;;
7583;SDS011;3833;41.764;26.204;2023-07-20T06:43:39;5.43;;;4.93;;
7583;SDS011;3833;41.764;26.204;2023-07-20T06:46:06;7.93;;;5.07;;
7583;SDS011;3833;41.764;26.204;2023-07-20T06:48:33;6.23;;;5.63;;
7583;SDS011;3833;41.764;26.204;2023-07-20T06:50:59;6.40;;;4.90;;
7583;SDS011;3833;41.764;26.204;2023-07-20T06:53:26;6.40;;;4.90;;
7583;SDS011;3833;41.764;26.204;2023-07-20T06:55:55;5.13;;;4.67;;
7583;SDS011;3833;41.764;26.204;2023-07-20T06:58:22;6.60;;;4.80;;
7583;SDS011;3833;41.764;26.204;2023-07-20T07:00:49;8.07;;;5.07;;
7583;SDS011;3833;41.764;26.204;2023-07-20T07:03:16;5.00;;;4.50;;
7583;SDS011;3833;41.764;26.204;2023-07-20T07:05:43;6.83;;;5.20;;
7583;SDS011;3833;41.764;26.204;2023-07-20T07:08:11;5.43;;;4.90;;
7583;SDS011;3833;41.764;26.204;2023-07-20T07:10:38;5.17;;;4.70;;
7583;SDS011;3833;41.764;26.204;2023-07-20T07:13:06;4.93;;;4.33;;
7583;SDS011;3833;41.764;26.204;2023-07-20T07:15:33;5.53;;;4.73;;
7583;SDS011;3833;41.764;26.204;2023-07-20T07:18:02;6.67;;;5.33;;
7583;SDS011;3833;41.764;26.204;2023-07-20T07:20:29;5.00;;;4.60;;
7583;SDS011;3833;41.764;26.204;2023-07-20T07:22:56;5.93;;;4.67;;
7583;SDS011;3833;41.764;26.204;2023-07-20T07:25:23;5.37;;;4.63;;
7583;SDS011;3833;41.764;26.204;2023-07-20T07:27:50;5.90;;;4.83;;
7583;SDS011;3833;41.764;26.204;2023-07-20T07:30:19;6.67;;;4.80;;
7583;SDS011;3833;41.764;26.204;2023-07-20T07:32:46;4.83;;;4.23;;
7583;SDS011;3833;41.764;26.204;2023-07-20T07:35:13;6.20;;;5.07;;
7583;SDS011;3833;41.764;26.204;2023-07-20T07:37:40;6.43;;;4.93;;
7583;SDS011;3833;41.764;26.204;2023-07-20T07:40:11;7.03;;;5.17;;
7583;SDS011;3833;41.764;26.204;2023-07-20T07:42:38;6.40;;;5.27;;
7583;SDS011;3833;41.764;26.204;2023-07-20T07:45:06;7.27;;;5.13;;
7583;SDS011;3833;41.764;26.204;2023-07-20T07:47:35;6.20;;;4.90;;
7583;SDS011;3833;41.764;26.204;2023-07-20T07:50:02;5.00;;;4.50;;
7583;SDS011;3833;41.764;26.204;2023-07-20T07:52:29;5.27;;;4.77;;
7583;SDS011;3833;41.764;26.204;2023-07-20T07:54:57;6.47;;;4.90;;
7583;SDS011;3833;41.764;26.204;2023-07-20T07:57:25;7.23;;;5.33;;
7583;SDS011;3833;41.764;26.204;2023-07-20T07:59:52;5.60;;;4.97;;
7583;SDS011;3833;41.764;26.204;2023-07-20T08:02:19;8.03;;;4.87;;
7583;SDS011;3833;41.764;26.204;2023-07-20T08:04:47;7.63;;;5.20;;
7583;SDS011;3833;41.764;26.204;2023-07-20T08:07:17;6.63;;;5.33;;
7583;SDS011;3833;41.764;26.204;2023-07-20T08:09:44;6.32;;;5.53;;
7583;SDS011;3833;41.764;26.204;2023-07-20T08:12:11;8.30;;;6.03;;
7583;SDS011;3833;41.764;26.204;2023-07-20T08:14:38;6.57;;;5.38;;
7583;SDS011;3833;41.764;26.204;2023-07-20T08:17:06;5.97;;;5.40;;
7583;SDS011;3833;41.764;26.204;2023-07-20T08:19:33;7.20;;;5.68;;
7583;SDS011;3833;41.764;26.204;2023-07-20T08:22:02;6.80;;;5.75;;
7583;SDS011;3833;41.764;26.204;2023-07-20T08:24:29;7.15;;;5.72;;
7583;SDS011;3833;41.764;26.204;2023-07-20T08:26:56;7.40;;;5.65;;
7583;SDS011;3833;41.764;26.204;2023-07-20T08:29:23;7.55;;;5.63;;
7583;SDS011;3833;41.764;26.204;2023-07-20T08:31:53;7.18;;;5.00;;
7583;SDS011;3833;41.764;26.204;2023-07-20T08:34:20;6.10;;;5.60;;
7583;SDS011;3833;41.764;26.204;2023-07-20T08:36:47;6.40;;;5.70;;
7583;SDS011;3833;41.764;26.204;2023-07-20T08:39:15;8.30;;;5.03;;
7583;SDS011;3833;41.764;26.204;2023-07-20T08:41:42;6.22;;;5.60;;
7583;SDS011;3833;41.764;26.204;2023-07-20T08:44:10;6.28;;;5.68;;
7583;SDS011;3833;41.764;26.204;2023-07-20T08:46:37;5.75;;;5.25;;
7583;SDS011;3833;41.764;26.204;2023-07-20T08:49:05;5.95;;;5.35;;
7583;SDS011;3833;41.764;26.204;2023-07-20T08:51:33;8.43;;;6.25;;
7583;SDS011;3833;41.764;26.204;2023-07-20T08:54:01;7.82;;;5.60;;
7583;SDS011;3833;41.764;26.204;2023-07-20T08:56:30;6.88;;;6.18;;
7583;SDS011;3833;41.764;26.204;2023-07-20T08:58:57;5.80;;;5.20;;
7583;SDS011;3833;41.764;26.204;2023-07-20T09:01:24;6.43;;;5.85;;
7583;SDS011;3833;41.764;26.204;2023-07-20T09:03:53;5.70;;;5.07;;
7583;SDS011;3833;41.764;26.204;2023-07-20T09:06:19;10.10;;;6.35;;
7583;SDS011;3833;41.764;26.204;2023-07-20T09:08:46;8.23;;;6.75;;
7583;SDS011;3833;41.764;26.204;2023-07-20T09:11:13;8.05;;;7.30;;
7583;SDS011;3833;41.764;26.204;2023-07-20T09:13:42;8.73;;;7.93;;
7583;SDS011;3833;41.764;26.204;2023-07-20T09:16:09;7.32;;;6.60;;
7583;SDS011;3833;41.764;26.204;2023-07-20T09:18:40;7.53;;;6.93;;
7583;SDS011;3833;41.764;26.204;2023-07-20T09:21:08;7.78;;;6.97;;
7583;SDS011;3833;41.764;26.204;2023-07-20T09:23:35;7.43;;;6.82;;
7583;SDS011;3833;41.764;26.204;2023-07-20T09:26:09;7.03;;;6.18;;
7583;SDS011;3833;41.764;26.204;2023-07-20T09:28:42;8.43;;;6.60;;
7583;SDS011;3833;41.764;26.204;2023-07-20T09:31:15;7.97;;;6.63;;
7583;SDS011;3833;41.764;26.204;2023-07-20T09:33:42;7.22;;;6.55;;
7583;SDS011;3833;41.764;26.204;2023-07-20T09:36:09;7.93;;;7.28;;
7583;SDS011;3833;41.764;26.204;2023-07-20T09:38:37;7.93;;;7.20;;
7583;SDS011;3833;41.764;26.204;2023-07-20T09:41:05;7.15;;;5.65;;
7583;SDS011;3833;41.764;26.204;2023-07-20T09:43:32;6.90;;;6.20;;
7583;SDS011;3833;41.764;26.204;2023-07-20T09:46:02;9.77;;;6.50;;
7583;SDS011;3833;41.764;26.204;2023-07-20T09:48:29;7.68;;;7.00;;
7583;SDS011;3833;41.764;26.204;2023-07-20T09:50:56;8.30;;;7.45;;
7583;SDS011;3833;41.764;26.204;2023-07-20T09:53:24;9.50;;;6.75;;
7583;SDS011;3833;41.764;26.204;2023-07-20T09:55:51;8.48;;;7.78;;
7583;SDS011;3833;41.764;26.204;2023-07-20T09:58:19;7.90;;;7.30;;
7583;SDS011;3833;41.764;26.204;2023-07-20T10:00:46;8.55;;;7.63;;
7583;SDS011;3833;41.764;26.204;2023-07-20T10:03:18;9.65;;;7.00;;
7583;SDS011;3833;41.764;26.204;2023-07-20T10:05:46;7.93;;;6.30;;
7583;SDS011;3833;41.764;26.204;2023-07-20T10:08:15;7.50;;;6.70;;
7583;SDS011;3833;41.764;26.204;2023-07-20T10:10:43;7.93;;;5.88;;
7583;SDS011;3833;41.764;26.204;2023-07-20T10:13:13;7.78;;;7.07;;
7583;SDS011;3833;41.764;26.204;2023-07-20T10:15:46;7.53;;;6.82;;
7583;SDS011;3833;41.764;26.204;2023-07-20T10:18:15;8.63;;;7.88;;
7583;SDS011;3833;41.764;26.204;2023-07-20T10:20:51;7.75;;;6.47;;
7583;SDS011;3833;41.764;26.204;2023-07-20T10:23:21;7.90;;;7.18;;
7583;SDS011;3833;41.764;26.204;2023-07-20T10:25:48;8.15;;;7.00;;
7583;SDS011;3833;41.764;26.204;2023-07-20T10:28:16;7.22;;;5.80;;
7583;SDS011;3833;41.764;26.204;2023-07-20T10:30:43;8.40;;;7.60;;
7583;SDS011;3833;41.764;26.204;2023-07-20T10:33:11;8.30;;;7.60;;
7583;SDS011;3833;41.764;26.204;2023-07-20T10:35:52;7.45;;;6.82;;
7583;SDS011;3833;41.764;26.204;2023-07-20T10:38:20;7.63;;;6.85;;
7583;SDS011;3833;41.764;26.204;2023-07-20T10:41:15;7.22;;;6.63;;
7583;SDS011;3833;41.764;26.204;2023-07-20T10:43:43;8.25;;;6.45;;
7583;SDS011;3833;41.764;26.204;2023-07-20T10:46:10;7.07;;;6.47;;
7583;SDS011;3833;41.764;26.204;2023-07-20T10:51:28;7.60;;;6.95;;
7583;SDS011;3833;41.764;26.204;2023-07-20T10:53:55;6.80;;;6.10;;
7583;SDS011;3833;41.764;26.204;2023-07-20T10:56:26;8.05;;;7.38;;
7583;SDS011;3833;41.764;26.204;2023-07-20T10:58:57;7.60;;;6.90;;
7583;SDS011;3833;41.764;26.204;2023-07-20T11:01:27;8.15;;;7.47;;
7583;SDS011;3833;41.764;26.204;2023-07-20T11:03:57;7.38;;;6.43;;
7583;SDS011;3833;41.764;26.204;2023-07-20T11:06:33;8.32;;;7.53;;
7583;SDS011;3833;41.764;26.204;2023-07-20T11:09:06;7.72;;;7.07;;
7583;SDS011;3833;41.764;26.204;2023-07-20T11:11:38;8.27;;;7.30;;
7583;SDS011;3833;41.764;26.204;2023-07-20T11:14:06;6.88;;;6.28;;
7583;SDS011;3833;41.764;26.204;2023-07-20T11:16:38;7.82;;;7.05;;
7583;SDS011;3833;41.764;26.204;2023-07-20T11:19:13;7.35;;;6.70;;
7583;SDS011;3833;41.764;26.204;2023-07-20T11:21:43;8.18;;;7.40;;
7583;SDS011;3833;41.764;26.204;2023-07-20T11:24:13;6.57;;;5.93;;
7583;SDS011;3833;41.764;26.204;2023-07-20T11:26:43;6.82;;;6.13;;
7583;SDS011;3833;41.764;26.204;2023-07-20T11:29:12;7.60;;;6.60;;
7583;SDS011;3833;41.764;26.204;2023-07-20T11:31:40;6.45;;;5.85;;
7583;SDS011;3833;41.764;26.204;2023-07-20T11:34:09;7.82;;;6.35;;
7583;SDS011;3833;41.764;26.204;2023-07-20T11:36:40;6.95;;;6.25;;
7583;SDS011;3833;41.764;26.204;2023-07-20T11:39:10;7.10;;;6.40;;
7583;SDS011;3833;41.764;26.204;2023-07-20T11:41:38;6.80;;;6.20;;
7583;SDS011;3833;41.764;26.204;2023-07-20T11:44:05;8.65;;;6.60;;
7583;SDS011;3833;41.764;26.204;2023-07-20T11:46:33;7.53;;;6.78;;
7583;SDS011;3833;41.764;26.204;2023-07-20T11:49:00;6.75;;;6.10;;
7583;SDS011;3833;41.764;26.204;2023-07-20T11:51:27;7.15;;;6.53;;
7583;SDS011;3833;41.764;26.204;2023-07-20T11:53:55;8.82;;;6.75;;
7583;SDS011;3833;41.764;26.204;2023-07-20T11:56:24;7.32;;;6.63;;
7583;SDS011;3833;41.764;26.204;2023-07-20T11:58:54;7.45;;;6.60;;
7583;SDS011;3833;41.764;26.204;2023-07-20T12:01:24;7.28;;;6.68;;
7583;SDS011;3833;41.764;26.204;2023-07-20T12:03:54;7.55;;;6.85;;
7583;SDS011;3833;41.764;26.204;2023-07-20T12:06:23;9.85;;;7.82;;
7583;SDS011;3833;41.764;26.204;2023-07-20T12:08:51;9.60;;;6.97;;
7583;SDS011;3833;41.764;26.204;2023-07-20T12:11:33;8.35;;;7.65;;
7583;SDS011;3833;41.764;26.204;2023-07-20T12:14:01;8.95;;;8.18;;
7583;SDS011;3833;41.764;26.204;2023-07-20T12:16:28;8.50;;;7.70;;
7583;SDS011;3833;41.764;26.204;2023-07-20T12:18:59;7.35;;;6.07;;
7583;SDS011;3833;41.764;26.204;2023-07-20T12:21:27;8.00;;;7.20;;
7583;SDS011;3833;41.764;26.204;2023-07-20T12:23:55;7.72;;;6.93;;
7583;SDS011;3833;41.764;26.204;2023-07-20T12:26:22;7.57;;;6.97;;
7583;SDS011;3833;41.764;26.204;2023-07-20T12:28:51;7.45;;;6.75;;
7583;SDS011;3833;41.764;26.204;2023-07-20T12:31:19;7.22;;;6.47;;
7583;SDS011;3833;41.764;26.204;2023-07-20T12:33:46;7.57;;;6.85;;
7583;SDS011;3833;41.764;26.204;2023-07-20T12:36:15;8.32;;;7.53;;
7583;SDS011;3833;41.764;26.204;2023-07-20T12:38:43;6.93;;;6.13;;
7583;SDS011;3833;41.764;26.204;2023-07-20T12:41:11;8.93;;;5.95;;
7583;SDS011;3833;41.764;26.204;2023-07-20T12:43:39;7.20;;;6.25;;
7583;SDS011;3833;41.764;26.204;2023-07-20T12:46:08;7.18;;;6.45;;
7583;SDS011;3833;41.764;26.204;2023-07-20T12:48:35;8.82;;;7.05;;
7583;SDS011;3833;41.764;26.204;2023-07-20T12:51:03;6.85;;;6.03;;
7583;SDS011;3833;41.764;26.204;2023-07-20T12:53:30;10.18;;;6.60;;
7583;SDS011;3833;41.764;26.204;2023-07-20T12:55:57;7.47;;;6.78;;
7583;SDS011;3833;41.764;26.204;2023-07-20T12:58:25;6.93;;;6.35;;
7583;SDS011;3833;41.764;26.204;2023-07-20T13:00:52;7.97;;;6.93;;
7583;SDS011;3833;41.764;26.204;2023-07-20T13:03:20;9.45;;;6.50;;
7583;SDS011;3833;41.764;26.204;2023-07-20T13:05:48;8.10;;;6.63;;
7583;SDS011;3833;41.764;26.204;2023-07-20T13:08:15;7.18;;;6.50;;
7583;SDS011;3833;41.764;26.204;2023-07-20T13:10:43;7.00;;;6.30;;
7583;SDS011;3833;41.764;26.204;2023-07-20T13:13:10;7.47;;;6.80;;
7583;SDS011;3833;41.764;26.204;2023-07-20T13:15:41;10.82;;;6.65;;
7583;SDS011;3833;41.764;26.204;2023-07-20T13:18:08;6.45;;;5.85;;
7583;SDS011;3833;41.764;26.204;2023-07-20T13:20:36;9.30;;;6.25;;
7583;SDS011;3833;41.764;26.204;2023-07-20T13:23:04;6.53;;;5.93;;
7583;SDS011;3833;41.764;26.204;2023-07-20T13:25:31;7.18;;;6.47;;
7583;SDS011;3833;41.764;26.204;2023-07-20T13:27:58;7.30;;;5.70;;
7583;SDS011;3833;41.764;26.204;2023-07-20T13:30:25;6.85;;;5.68;;
7583;SDS011;3833;41.764;26.204;2023-07-20T13:32:51;7.60;;;6.60;;
7583;SDS011;3833;41.764;26.204;2023-07-20T13:35:18;8.55;;;6.47;;
7583;SDS011;3833;41.764;26.204;2023-07-20T13:37:47;7.25;;;6.55;;
7583;SDS011;3833;41.764;26.204;2023-07-20T13:40:15;6.78;;;6.18;;
7583;SDS011;3833;41.764;26.204;2023-07-20T13:42:43;7.18;;;6.47;;
7583;SDS011;3833;41.764;26.204;2023-07-20T13:45:11;6.45;;;5.95;;
7583;SDS011;3833;41.764;26.204;2023-07-20T13:47:38;6.70;;;6.10;;
7583;SDS011;3833;41.764;26.204;2023-07-20T13:50:05;8.38;;;6.38;;
7583;SDS011;3833;41.764;26.204;2023-07-20T13:52:33;7.03;;;6.32;;
7583;SDS011;3833;41.764;26.204;2023-07-20T13:55:01;7.30;;;6.55;;
7583;SDS011;3833;41.764;26.204;2023-07-20T13:57:29;6.90;;;6.30;;
7583;SDS011;3833;41.764;26.204;2023-07-20T13:59:56;8.10;;;6.93;;
7583;SDS011;3833;41.764;26.204;2023-07-20T14:02:25;7.30;;;6.60;;
7583;SDS011;3833;41.764;26.204;2023-07-20T14:04:52;7.63;;;7.00;;
7583;SDS011;3833;41.764;26.204;2023-07-20T14:07:21;10.83;;;7.07;;
7583;SDS011;3833;41.764;26.204;2023-07-20T14:09:47;7.37;;;5.87;;
7583;SDS011;3833;41.764;26.204;2023-07-20T14:12:16;8.40;;;5.60;;
7583;SDS011;3833;41.764;26.204;2023-07-20T14:14:43;9.17;;;5.40;;
7583;SDS011;3833;41.764;26.204;2023-07-20T14:17:10;6.23;;;5.63;;
7583;SDS011;3833;41.764;26.204;2023-07-20T14:19:37;7.67;;;5.70;;
7583;SDS011;3833;41.764;26.204;2023-07-20T14:22:04;8.03;;;5.67;;
7583;SDS011;3833;41.764;26.204;2023-07-20T14:24:32;6.80;;;5.40;;
7583;SDS011;3833;41.764;26.204;2023-07-20T14:26:59;6.60;;;5.13;;
7583;SDS011;3833;41.764;26.204;2023-07-20T14:29:28;5.57;;;5.03;;
7583;SDS011;3833;41.764;26.204;2023-07-20T14:31:57;5.43;;;4.93;;
7583;SDS011;3833;41.764;26.204;2023-07-20T14:34:24;7.57;;;5.30;;
7583;SDS011;3833;41.764;26.204;2023-07-20T14:36:51;8.40;;;5.23;;
7583;SDS011;3833;41.764;26.204;2023-07-20T14:39:18;5.50;;;5.00;;
7583;SDS011;3833;41.764;26.204;2023-07-20T14:41:45;5.77;;;5.27;;
7583;SDS011;3833;41.764;26.204;2023-07-20T14:44:12;6.93;;;5.37;;
7583;SDS011;3833;41.764;26.204;2023-07-20T14:46:40;7.23;;;5.50;;
7583;SDS011;3833;41.764;26.204;2023-07-20T14:49:07;8.67;;;5.30;;
7583;SDS011;3833;41.764;26.204;2023-07-20T14:51:36;8.53;;;5.27;;
7583;SDS011;3833;41.764;26.204;2023-07-20T14:54:08;7.93;;;5.07;;
7583;SDS011;3833;41.764;26.204;2023-07-20T14:56:35;6.00;;;5.37;;
7583;SDS011;3833;41.764;26.204;2023-07-20T14:59:03;5.77;;;5.27;;
7583;SDS011;3833;41.764;26.204;2023-07-20T15:01:31;7.00;;;4.97;;
7583;SDS011;3833;41.764;26.204;2023-07-20T15:03:59;5.50;;;5.00;;
7583;SDS011;3833;41.764;26.204;2023-07-20T15:06:26;5.03;;;4.47;;
7583;SDS011;3833;41.764;26.204;2023-07-20T15:08:55;5.10;;;4.60;;